Time;durP1;ratioP1;P1;durP2;ratioP2;P2;SDS_P1;SDS_P2;PMS_P1;PMS_P2;Temp;Humidity;BMP_temperature;BMP_pressure;BME280_temperature;BME280_humidity;BME280_pressure;Samples;Min_cycle;Max_cycle;Signal;HPM_P1;HPM_P2
2021/12/25 00:14:25;;;;;;;13.93;5.22;;;1.60;99.90;;;;;;5763241;22;20270;-71
2021/12/25 00:16:53;;;;;;;7.88;4.07;;;1.50;99.90;;;;;;5011209;28;20192;-71
2021/12/25 00:19:19;;;;;;;11.65;4.45;;;1.50;99.90;;;;;;5014777;28;20484;-71
2021/12/25 00:21:44;;;;;;;8.43;4.00;;;1.40;99.90;;;;;;5014965;28;20086;-71
2021/12/25 00:24:10;;;;;;;10.27;4.28;;;1.30;99.90;;;;;;5014843;28;20054;-71
2021/12/25 00:29:16;;;;;;;7.00;3.45;;;1.40;99.90;;;;;;5014062;28;20041;-71
2021/12/25 00:31:49;;;;;;;5.95;2.95;;;1.40;99.90;;;;;;4998283;28;20338;-71
2021/12/25 00:34:15;;;;;;;11.15;3.67;;;1.60;99.90;;;;;;5014414;28;20500;-71
2021/12/25 00:36:41;;;;;;;9.90;3.25;;;1.50;99.90;;;;;;5011383;28;20042;-72
2021/12/25 00:39:06;;;;;;;8.70;3.88;;;1.50;99.90;;;;;;4995311;28;20045;-71
2021/12/25 00:41:32;;;;;;;9.40;3.72;;;1.30;99.90;;;;;;4995390;28;20046;-71
2021/12/25 00:43:58;;;;;;;8.18;3.13;;;1.30;99.90;;;;;;4996118;28;20126;-71
2021/12/25 00:46:23;;;;;;;8.02;3.45;;;1.20;99.90;;;;;;4995327;28;20052;-72
2021/12/25 00:48:49;;;;;;;9.38;3.47;;;1.30;99.90;;;;;;5010846;28;20076;-73
2021/12/25 00:51:15;;;;;;;7.65;3.50;;;1.20;99.90;;;;;;5014096;28;20128;-71
2021/12/25 00:53:41;;;;;;;7.63;3.05;;;1.30;99.90;;;;;;5013970;28;20130;-71
2021/12/25 00:56:06;;;;;;;7.50;3.50;;;1.40;99.90;;;;;;5015834;28;20053;-72
2021/12/25 00:58:32;;;;;;;7.75;3.40;;;1.10;99.90;;;;;;5013536;28;20109;-72
2021/12/25 01:00:58;;;;;;;9.48;3.63;;;1.30;99.90;;;;;;4997958;28;20056;-71
2021/12/25 01:03:23;;;;;;;9.05;3.30;;;1.30;99.90;;;;;;5012774;28;20295;-71
2021/12/25 01:05:49;;;;;;;7.53;3.72;;;1.20;99.90;;;;;;5012218;28;20100;-71
2021/12/25 01:08:15;;;;;;;8.15;2.83;;;1.20;99.90;;;;;;5013001;28;20038;-72
2021/12/25 01:10:41;;;;;;;5.90;2.42;;;1.20;99.90;;;;;;5012755;28;20056;-72
2021/12/25 01:13:12;;;;;;;7.35;3.47;;;1.20;99.90;;;;;;5012575;28;20053;-71
2021/12/25 01:21:17;;;;;;;9.23;3.45;;;0.80;99.90;;;;;;4994266;28;20386;-72
2021/12/25 01:38:59;;;;;;;8.77;2.53;;;0.70;99.90;;;;;;5014256;28;20037;-73
2021/12/25 01:47:46;;;;;;;6.75;2.53;;;0.60;99.90;;;;;;5010451;28;20057;-72
2021/12/25 01:49:56;;;;;;;8.10;2.42;;;0.70;99.90;;;;;;4993618;28;20062;-72
2021/12/25 01:52:26;;;;;;;9.40;2.35;;;0.50;99.90;;;;;;4977544;28;20046;-73
2021/12/25 01:55:00;;;;;;;6.15;2.50;;;0.40;99.90;;;;;;4993794;28;20049;-73
2021/12/25 01:57:28;;;;;;;7.93;2.67;;;0.50;99.90;;;;;;5002452;28;20088;-72
2021/12/25 01:59:53;;;;;;;4.63;1.77;;;0.30;99.90;;;;;;5014303;28;20029;-72
2021/12/25 02:02:19;;;;;;;4.38;1.85;;;0.30;99.90;;;;;;5012412;28;20065;-71
2021/12/25 02:04:45;;;;;;;6.32;2.10;;;0.40;99.90;;;;;;4996295;28;20045;-71
2021/12/25 02:07:11;;;;;;;4.13;1.95;;;0.40;99.90;;;;;;5006607;28;20072;-72
2021/12/25 02:09:37;;;;;;;3.83;1.48;;;0.40;99.90;;;;;;4994902;28;20049;-70
2021/12/25 02:12:06;;;;;;;7.03;1.77;;;0.30;99.90;;;;;;4994831;28;20112;-71
2021/12/25 02:14:34;;;;;;;4.30;2.00;;;0.30;99.90;;;;;;4992685;28;20046;-72
2021/12/25 02:17:13;;;;;;;4.22;1.73;;;0.20;99.90;;;;;;4998123;28;20049;-72
2021/12/25 02:19:50;;;;;;;4.63;1.50;;;0.10;99.90;;;;;;5012972;28;20048;-72
2021/12/25 02:22:18;;;;;;;3.45;1.70;;;0.20;99.90;;;;;;5012738;28;20033;-71
2021/12/25 02:24:43;;;;;;;6.35;1.70;;;0.20;99.90;;;;;;5012409;28;20345;-72
2021/12/25 02:27:10;;;;;;;6.93;1.88;;;0.20;99.90;;;;;;4989997;28;20042;-72
2021/12/25 02:29:36;;;;;;;4.57;1.58;;;0.10;99.90;;;;;;4993161;28;20030;-72
2021/12/25 02:32:03;;;;;;;4.55;1.40;;;0.00;99.90;;;;;;4992570;28;20121;-73
2021/12/25 02:34:29;;;;;;;6.68;1.70;;;-0.10;99.90;;;;;;4993579;28;20100;-72
2021/12/25 02:36:57;;;;;;;2.95;1.13;;;-0.10;99.90;;;;;;4997806;28;20025;-72
2021/12/25 02:39:23;;;;;;;3.47;1.00;;;-0.10;99.90;;;;;;5012854;28;20038;-72
2021/12/25 02:41:50;;;;;;;4.70;1.52;;;-0.30;99.90;;;;;;5012655;28;20350;-73
2021/12/25 02:44:16;;;;;;;4.93;1.38;;;-0.40;99.90;;;;;;5012229;28;20088;-73
2021/12/25 02:46:42;;;;;;;7.30;1.70;;;-0.30;99.90;;;;;;5009936;28;20042;-73
2021/12/25 02:49:12;;;;;;;5.53;1.77;;;-0.40;99.90;;;;;;4992926;28;20099;-73
2021/12/25 02:51:38;;;;;;;2.88;1.38;;;-0.40;99.90;;;;;;4993059;28;20043;-73
2021/12/25 02:54:03;;;;;;;3.72;1.35;;;-0.40;99.90;;;;;;4992224;28;20344;-73
2021/12/25 02:56:29;;;;;;;3.67;1.40;;;-0.50;99.90;;;;;;4993157;28;20042;-73
2021/12/25 02:58:54;;;;;;;6.35;1.50;;;-0.50;99.90;;;;;;5012374;28;20041;-73
2021/12/25 03:01:21;;;;;;;5.00;1.70;;;-0.50;99.90;;;;;;5012229;28;20037;-74
2021/12/25 03:03:47;;;;;;;4.50;1.40;;;-0.60;99.90;;;;;;5012182;28;20156;-74
2021/12/25 03:06:13;;;;;;;5.45;1.30;;;-0.60;99.90;;;;;;5012263;28;20037;-74
2021/12/25 03:08:39;;;;;;;3.72;1.50;;;-0.60;99.90;;;;;;4994090;28;20050;-75
2021/12/25 03:11:06;;;;;;;4.68;1.27;;;-0.70;99.90;;;;;;4992584;28;20495;-73
2021/12/25 03:13:37;;;;;;;3.67;1.38;;;-0.60;99.90;;;;;;4975915;28;20463;-73
2021/12/25 03:16:07;;;;;;;5.88;1.67;;;-0.70;99.90;;;;;;4992343;28;20137;-74
2021/12/25 03:18:39;;;;;;;5.47;1.45;;;-0.80;99.90;;;;;;5009274;28;20110;-73
2021/12/25 03:21:06;;;;;;;6.43;1.50;;;-0.90;99.90;;;;;;4995973;28;20053;-73
2021/12/25 03:23:34;;;;;;;3.47;1.52;;;-0.80;99.90;;;;;;4998440;28;20042;-72
2021/12/25 03:26:02;;;;;;;5.82;1.55;;;-0.80;99.90;;;;;;4976546;28;20082;-73
2021/12/25 03:28:31;;;;;;;3.05;1.10;;;-0.80;99.90;;;;;;5008809;28;20089;-73
2021/12/25 03:31:04;;;;;;;5.28;1.30;;;-0.80;99.90;;;;;;5012330;28;20054;-73
2021/12/25 03:33:31;;;;;;;2.88;1.10;;;-0.90;99.90;;;;;;4995688;28;20133;-74
2021/12/25 03:35:57;;;;;;;6.35;1.73;;;-1.00;99.90;;;;;;5012126;28;20074;-73
2021/12/25 03:38:23;;;;;;;5.03;1.45;;;-1.10;99.90;;;;;;4996242;28;20049;-73
2021/12/25 03:40:50;;;;;;;4.90;1.20;;;-1.00;99.90;;;;;;4992536;28;20035;-75
2021/12/25 03:43:17;;;;;;;2.40;1.02;;;-1.20;99.90;;;;;;4992406;28;20104;-75
2021/12/25 03:45:44;;;;;;;7.18;1.60;;;-1.20;99.90;;;;;;4992102;28;20050;-73
2021/12/25 03:58:45;;;;;;;3.92;1.20;;;-1.10;99.90;;;;;;4992429;28;20324;-73
2021/12/25 04:04:03;;;;;;;3.00;1.10;;;-1.10;99.90;;;;;;4992823;28;20187;-73
2021/12/25 04:06:30;;;;;;;3.90;1.10;;;-1.20;99.90;;;;;;4992716;28;20046;-72
2021/12/25 04:08:57;;;;;;;4.30;1.30;;;-1.30;99.90;;;;;;4979368;28;20048;-72
2021/12/25 04:11:29;;;;;;;6.65;1.35;;;-1.40;99.90;;;;;;5011854;28;20081;-73
2021/12/25 04:13:56;;;;;;;3.25;1.05;;;-1.40;99.90;;;;;;5012452;28;20078;-73
2021/12/25 04:16:23;;;;;;;3.83;1.40;;;-1.40;99.90;;;;;;5011502;28;20546;-73
2021/12/25 04:18:49;;;;;;;4.95;1.30;;;-1.50;99.90;;;;;;4992894;28;20061;-72
2021/12/25 04:21:15;;;;;;;2.50;0.82;;;-1.40;99.90;;;;;;4992000;28;20471;-73
2021/12/25 04:23:42;;;;;;;4.10;1.65;;;-1.30;99.90;;;;;;5007145;28;20049;-73
2021/12/25 04:26:08;;;;;;;2.38;1.10;;;-1.40;99.90;;;;;;5014842;28;20060;-72
2021/12/25 05:04:04;;;;;;;4.00;0.93;;;-1.90;99.90;;;;;;4994655;28;20069;-73
2021/12/25 05:06:29;;;;;;;2.92;0.90;;;-1.90;99.90;;;;;;4978653;28;20474;-77
2021/12/25 05:08:55;;;;;;;3.00;0.80;;;-1.90;99.90;;;;;;4995233;28;20048;-74
2021/12/25 05:11:22;;;;;;;3.75;0.98;;;-2.00;99.90;;;;;;4994675;28;20120;-73
2021/12/25 05:13:49;;;;;;;3.50;0.80;;;-2.10;99.90;;;;;;4993971;28;20038;-74
2021/12/25 05:16:16;;;;;;;1.23;0.88;;;-2.10;99.90;;;;;;4994249;28;20054;-74
2021/12/25 05:18:42;;;;;;;2.47;0.95;;;-2.10;99.90;;;;;;5011497;28;20046;-73
2021/12/25 05:21:09;;;;;;;3.15;1.00;;;-2.20;99.90;;;;;;5014125;28;20088;-72
2021/12/25 05:23:36;;;;;;;2.80;1.08;;;-2.30;99.90;;;;;;5013733;28;20046;-73
2021/12/25 05:26:05;;;;;;;3.05;1.00;;;-2.20;99.90;;;;;;5014364;28;20057;-72
2021/12/25 05:28:40;;;;;;;1.65;1.00;;;-2.10;99.90;;;;;;4998088;28;20065;-73
2021/12/25 05:31:12;;;;;;;1.90;0.80;;;-2.30;99.90;;;;;;4995572;28;20054;-73
2021/12/25 05:33:39;;;;;;;2.88;1.05;;;-2.20;99.90;;;;;;4993839;28;20050;-73
2021/12/25 05:36:07;;;;;;;3.20;1.00;;;-2.20;99.90;;;;;;4994207;28;20383;-73
2021/12/25 05:38:34;;;;;;;1.70;1.05;;;-2.30;99.90;;;;;;5009690;28;20042;-74
2021/12/25 05:41:00;;;;;;;3.33;1.05;;;-2.30;99.90;;;;;;5013859;28;20470;-74
2021/12/25 05:43:26;;;;;;;2.58;0.95;;;-2.50;99.90;;;;;;5013631;28;20050;-73
2021/12/25 05:45:52;;;;;;;2.05;0.80;;;-2.40;99.90;;;;;;5013495;28;20056;-73
2021/12/25 05:48:17;;;;;;;2.25;0.98;;;-2.40;99.90;;;;;;5000708;28;20034;-73
2021/12/25 05:50:44;;;;;;;2.97;1.00;;;-2.50;99.90;;;;;;4995128;28;20129;-73
2021/12/25 05:53:09;;;;;;;4.38;1.05;;;-2.60;99.90;;;;;;4993765;28;20153;-74
2021/12/25 05:55:35;;;;;;;2.15;1.00;;;-2.60;99.90;;;;;;4994103;28;20498;-73
2021/12/25 05:58:03;;;;;;;3.28;1.20;;;-2.50;99.90;;;;;;5006413;28;20056;-73
2021/12/25 06:00:30;;;;;;;2.78;1.10;;;-2.50;99.90;;;;;;5013650;28;20037;-73
2021/12/25 06:02:59;;;;;;;1.67;1.02;;;-2.40;99.90;;;;;;5013500;28;20125;-73
2021/12/25 06:05:26;;;;;;;2.05;1.20;;;-2.50;99.90;;;;;;5013106;28;20095;-73
2021/12/25 06:07:53;;;;;;;1.73;1.00;;;-2.50;99.90;;;;;;5013263;28;20046;-73
2021/12/25 06:10:18;;;;;;;2.53;0.80;;;-2.60;99.90;;;;;;5014252;28;20418;-73
2021/12/25 06:12:48;;;;;;;1.92;0.90;;;-2.60;99.90;;;;;;5013257;28;20132;-72
2021/12/25 06:15:15;;;;;;;4.28;1.17;;;-2.70;99.90;;;;;;5023150;28;20425;-73
2021/12/25 06:17:41;;;;;;;2.17;0.80;;;-2.60;99.90;;;;;;5007559;28;20072;-74
2021/12/25 06:20:08;;;;;;;2.08;1.00;;;-2.70;99.90;;;;;;4980567;28;20052;-73
2021/12/25 06:22:35;;;;;;;2.05;1.05;;;-2.60;99.90;;;;;;5019753;28;20400;-73
2021/12/25 06:25:03;;;;;;;2.65;1.10;;;-2.60;99.90;;;;;;4999793;28;20454;-74
2021/12/25 06:27:28;;;;;;;2.30;0.88;;;-2.50;99.90;;;;;;5015372;28;20045;-74
2021/12/25 06:29:54;;;;;;;3.60;1.30;;;-2.60;99.90;;;;;;5032431;28;20039;-73
2021/12/25 06:32:20;;;;;;;1.75;1.00;;;-2.70;99.90;;;;;;5015992;28;20041;-74
2021/12/25 06:34:46;;;;;;;3.92;1.00;;;-2.60;99.90;;;;;;5033152;28;20038;-73
2021/12/25 06:37:13;;;;;;;3.45;1.20;;;-2.50;99.90;;;;;;5011207;28;20041;-74
2021/12/25 06:39:40;;;;;;;1.75;1.00;;;-2.60;99.90;;;;;;4996203;28;20056;-74
2021/12/25 06:42:08;;;;;;;3.72;1.17;;;-2.60;99.90;;;;;;4996153;28;20045;-73
2021/12/25 06:44:33;;;;;;;3.47;1.05;;;-2.60;99.90;;;;;;4995893;28;20046;-74
2021/12/25 06:47:00;;;;;;;2.53;1.00;;;-2.70;99.90;;;;;;4998762;28;20067;-74
2021/12/25 06:49:27;;;;;;;1.90;1.00;;;-2.60;99.90;;;;;;5015797;28;20076;-73
2021/12/25 06:51:52;;;;;;;1.88;0.90;;;-2.80;99.90;;;;;;4999476;28;20057;-73
2021/12/25 06:54:18;;;;;;;2.13;0.90;;;-2.80;99.90;;;;;;5015358;28;20055;-74
2021/12/25 06:56:46;;;;;;;2.15;0.80;;;-2.80;99.90;;;;;;5015161;28;20047;-74
2021/12/25 06:59:11;;;;;;;2.40;1.23;;;-2.90;99.90;;;;;;4980862;28;20045;-74
2021/12/25 07:01:38;;;;;;;0.98;0.63;;;-3.00;99.90;;;;;;4995597;28;20089;-73
2021/12/25 07:04:07;;;;;;;3.30;1.00;;;-2.80;99.90;;;;;;5012305;28;20120;-73
2021/12/25 07:06:34;;;;;;;2.22;0.98;;;-3.00;99.90;;;;;;4995739;28;20034;-74
2021/12/25 07:09:00;;;;;;;1.77;0.88;;;-3.00;99.90;;;;;;4997858;28;20084;-73
2021/12/25 07:11:26;;;;;;;3.03;0.80;;;-3.00;99.90;;;;;;4995547;28;20382;-74
2021/12/25 07:13:52;;;;;;;3.72;0.93;;;-3.00;99.90;;;;;;4995066;28;20069;-75
2021/12/25 07:16:19;;;;;;;1.63;0.77;;;-3.00;99.90;;;;;;4994776;28;20121;-74
2021/12/25 07:18:45;;;;;;;2.60;0.77;;;-3.00;99.90;;;;;;4995580;28;20052;-74
2021/12/25 07:21:11;;;;;;;1.38;0.52;;;-3.10;99.90;;;;;;5003658;28;20037;-73
2021/12/25 07:23:37;;;;;;;1.13;0.70;;;-3.10;99.90;;;;;;4998343;28;20401;-74
2021/12/25 07:26:04;;;;;;;2.13;0.52;;;-3.10;99.90;;;;;;5014924;28;20053;-74
2021/12/25 07:28:30;;;;;;;0.90;0.70;;;-3.00;99.90;;;;;;4997979;28;20053;-74
2021/12/25 07:31:01;;;;;;;2.05;0.82;;;-3.10;99.90;;;;;;5014826;28;20087;-74
2021/12/25 07:33:28;;;;;;;1.88;1.00;;;-3.10;99.90;;;;;;5014937;28;20041;-74
2021/12/25 07:35:57;;;;;;;1.08;0.70;;;-3.20;99.90;;;;;;5015328;28;20056;-74
2021/12/25 07:38:25;;;;;;;1.60;0.80;;;-3.10;99.90;;;;;;4998142;28;20473;-74
2021/12/25 07:40:51;;;;;;;2.40;0.68;;;-3.20;99.90;;;;;;5015212;28;20037;-72
2021/12/25 07:43:18;;;;;;;1.58;0.70;;;-3.20;99.90;;;;;;5014602;28;20041;-73
2021/12/25 07:45:48;;;;;;;2.08;0.80;;;-3.20;99.90;;;;;;5032563;28;20045;-73
2021/12/25 07:48:18;;;;;;;2.13;0.85;;;-3.30;99.90;;;;;;5014337;28;20046;-74
2021/12/25 07:50:45;;;;;;;3.47;1.08;;;-3.20;99.90;;;;;;5014837;28;20167;-73
2021/12/25 07:53:11;;;;;;;3.17;1.00;;;-3.10;99.90;;;;;;5014620;28;20466;-72
2021/12/25 07:55:37;;;;;;;3.08;0.93;;;-3.20;99.90;;;;;;5014878;28;20075;-73
2021/12/25 07:58:03;;;;;;;1.25;0.82;;;-3.20;99.90;;;;;;5004238;28;20042;-73
2021/12/25 08:00:30;;;;;;;2.60;0.90;;;-3.10;99.90;;;;;;4984198;28;20402;-72
2021/12/25 08:02:56;;;;;;;2.70;0.77;;;-3.20;99.90;;;;;;5018252;28;20045;-73
2021/12/25 08:05:22;;;;;;;1.98;0.80;;;-3.20;99.90;;;;;;5018524;28;20072;-74
2021/12/25 08:07:48;;;;;;;1.00;0.52;;;-3.30;99.90;;;;;;5017662;28;20064;-72
2021/12/25 08:10:17;;;;;;;2.55;0.85;;;-3.30;99.90;;;;;;5018541;28;20091;-73
2021/12/25 08:12:50;;;;;;;5.00;1.10;;;-3.30;99.90;;;;;;5003142;28;20430;-74
2021/12/25 08:15:19;;;;;;;1.98;0.80;;;-3.30;99.90;;;;;;5015490;28;20073;-73
2021/12/25 08:17:45;;;;;;;2.03;1.08;;;-3.30;99.90;;;;;;5001941;28;20077;-73
2021/12/25 08:20:12;;;;;;;2.00;0.93;;;-3.30;99.90;;;;;;5001768;28;20077;-72
2021/12/25 08:22:38;;;;;;;2.95;1.30;;;-3.40;99.90;;;;;;5001304;28;20488;-72
2021/12/25 08:25:04;;;;;;;2.40;0.70;;;-3.30;99.90;;;;;;5017578;28;20120;-73
2021/12/25 08:27:32;;;;;;;2.17;0.73;;;-3.30;99.90;;;;;;5017472;28;20048;-72
2021/12/25 08:29:59;;;;;;;2.05;0.60;;;-3.30;99.90;;;;;;5018335;28;20041;-72
2021/12/25 08:32:27;;;;;;;1.80;0.70;;;-3.30;99.90;;;;;;5018078;28;20063;-74
2021/12/25 08:34:53;;;;;;;0.93;0.70;;;-3.10;99.90;;;;;;5017650;28;20429;-74
2021/12/25 08:37:23;;;;;;;2.47;0.90;;;-2.60;99.90;;;;;;4997489;28;20030;-73
2021/12/25 08:39:50;;;;;;;2.22;0.80;;;-2.60;99.90;;;;;;4998621;28;20046;-74
2021/12/25 08:42:16;;;;;;;1.73;0.70;;;-2.60;99.90;;;;;;4998513;28;20121;-71
2021/12/25 08:45:04;;;;;;;2.28;1.10;;;-2.50;99.90;;;;;;4997983;28;20103;-74
2021/12/25 08:47:34;;;;;;;2.10;1.00;;;-2.60;99.90;;;;;;5021778;28;20041;-73
2021/12/25 08:50:02;;;;;;;2.85;0.85;;;-2.60;99.90;;;;;;5018003;28;20053;-72
2021/12/25 08:52:28;;;;;;;2.70;1.13;;;-2.50;99.90;;;;;;5018110;28;20053;-72
2021/12/25 08:54:53;;;;;;;1.23;0.85;;;-2.40;99.90;;;;;;5017024;28;20033;-73
2021/12/25 08:57:22;;;;;;;2.92;0.90;;;-2.50;99.90;;;;;;5014670;28;20049;-72
2021/12/25 08:59:54;;;;;;;1.63;0.80;;;-2.50;99.90;;;;;;4980165;28;20469;-72
2021/12/25 09:02:20;;;;;;;3.35;0.85;;;-2.40;99.90;;;;;;4997597;28;20137;-72
2021/12/25 09:04:48;;;;;;;2.92;1.00;;;-2.30;99.90;;;;;;4997821;28;20042;-71
2021/12/25 09:07:15;;;;;;;1.45;0.77;;;-2.30;99.90;;;;;;5013452;28;20441;-73
2021/12/25 09:09:41;;;;;;;4.30;0.88;;;-2.30;99.90;;;;;;5017465;28;20101;-73
2021/12/25 09:12:09;;;;;;;2.85;0.88;;;-2.30;99.90;;;;;;5017218;28;20076;-74
2021/12/25 09:14:36;;;;;;;2.55;0.85;;;-2.20;99.90;;;;;;5013297;28;20525;-73
2021/12/25 09:17:04;;;;;;;1.42;0.82;;;-2.30;99.90;;;;;;5026749;28;20045;-74
2021/12/25 09:19:32;;;;;;;3.20;0.93;;;-2.50;99.90;;;;;;4994707;28;20145;-73
2021/12/25 09:21:58;;;;;;;3.05;0.90;;;-2.60;99.90;;;;;;4995137;28;20459;-74
2021/12/25 09:24:25;;;;;;;2.17;0.88;;;-2.60;99.90;;;;;;5013509;28;20104;-75
2021/12/25 09:26:50;;;;;;;2.03;0.63;;;-2.60;99.90;;;;;;5013349;28;20045;-74
2021/12/25 09:29:16;;;;;;;1.92;1.05;;;-2.60;99.90;;;;;;4995432;28;20104;-74
2021/12/25 09:31:42;;;;;;;2.28;0.85;;;-2.70;99.90;;;;;;4994245;28;20058;-74
2021/12/25 09:34:08;;;;;;;1.33;0.63;;;-2.70;99.90;;;;;;4993904;28;20124;-74
2021/12/25 09:36:34;;;;;;;4.80;0.80;;;-2.70;99.90;;;;;;4994643;28;20030;-74
2021/12/25 09:39:01;;;;;;;4.68;1.42;;;-2.70;99.90;;;;;;4996629;28;20034;-75
2021/12/25 09:41:26;;;;;;;2.13;0.85;;;-2.70;99.90;;;;;;5010481;28;20334;-74
2021/12/25 09:43:52;;;;;;;2.60;0.90;;;-2.60;99.90;;;;;;4996828;28;20049;-74
2021/12/25 09:46:21;;;;;;;2.00;0.82;;;-2.50;99.90;;;;;;5013470;28;20430;-73
2021/12/25 09:48:50;;;;;;;3.58;0.77;;;-2.50;99.90;;;;;;4996516;28;20129;-75
2021/12/25 09:51:16;;;;;;;3.40;1.00;;;-2.50;99.90;;;;;;4996991;28;20074;-74
2021/12/25 09:53:42;;;;;;;2.13;0.82;;;-2.50;99.90;;;;;;5012877;28;20120;-74
2021/12/25 09:56:08;;;;;;;3.90;1.00;;;-2.40;99.90;;;;;;5013402;28;20421;-73
2021/12/25 09:58:34;;;;;;;3.88;0.98;;;-2.30;99.90;;;;;;5012311;28;20038;-73
2021/12/25 10:00:59;;;;;;;2.92;0.93;;;-2.30;99.90;;;;;;5013087;28;20053;-72
2021/12/25 10:03:42;;;;;;;2.65;1.00;;;-2.30;99.90;;;;;;5013018;28;20046;-74
2021/12/25 10:06:09;;;;;;;3.60;0.90;;;-2.20;99.90;;;;;;4997085;28;20049;-73
2021/12/25 10:08:39;;;;;;;3.15;0.85;;;-2.20;99.90;;;;;;5012421;28;20172;-73
2021/12/25 10:11:05;;;;;;;4.80;1.23;;;-2.10;99.90;;;;;;4995616;28;20042;-72
2021/12/25 10:13:40;;;;;;;4.40;1.13;;;-2.10;99.90;;;;;;4990128;28;20042;-72
2021/12/25 10:16:29;;;;;;;2.30;1.00;;;-2.00;99.90;;;;;;4993130;28;20464;-73
2021/12/25 10:19:15;;;;;;;2.83;1.00;;;-2.00;99.90;;;;;;5011004;28;20037;-69
2021/12/25 10:21:41;;;;;;;2.67;0.98;;;-2.00;99.90;;;;;;4981019;28;20104;-70
2021/12/25 10:24:26;;;;;;;3.17;1.13;;;-2.00;99.90;;;;;;5011759;28;20045;-69
2021/12/25 10:26:53;;;;;;;3.20;0.68;;;-1.90;99.90;;;;;;5012499;28;20467;-70
2021/12/25 10:29:25;;;;;;;2.95;1.02;;;-1.90;99.90;;;;;;4994146;28;20089;-70
2021/12/25 10:31:53;;;;;;;2.53;0.88;;;-1.90;99.90;;;;;;4993043;28;20050;-71
2021/12/25 10:34:21;;;;;;;2.42;0.90;;;-1.90;99.90;;;;;;4994701;28;20408;-71
2021/12/25 10:36:47;;;;;;;4.30;0.95;;;-1.80;99.90;;;;;;4993188;28;20117;-67
2021/12/25 10:39:17;;;;;;;1.65;0.80;;;-1.70;99.90;;;;;;4993733;28;20049;-70
2021/12/25 10:42:09;;;;;;;2.63;1.10;;;-1.70;99.90;;;;;;4993853;28;20061;-70
2021/12/25 10:44:38;;;;;;;2.58;0.90;;;-1.70;99.90;;;;;;4992666;28;20053;-70
2021/12/25 10:47:06;;;;;;;3.70;0.80;;;-1.60;99.90;;;;;;4994068;28;20655;-72
2021/12/25 10:49:47;;;;;;;3.28;0.90;;;-1.60;99.90;;;;;;5012689;28;20403;-72
2021/12/25 10:52:40;;;;;;;4.78;1.23;;;-1.60;99.90;;;;;;5013315;28;20118;-69
2021/12/25 10:55:17;;;;;;;4.85;0.90;;;-1.50;99.90;;;;;;5013977;28;20046;-66
2021/12/25 10:57:55;;;;;;;1.85;0.60;;;-1.50;99.90;;;;;;5005538;28;20126;-74
2021/12/25 11:00:20;;;;;;;2.83;0.88;;;-1.50;99.90;;;;;;4992995;28;20049;-74
2021/12/25 11:03:08;;;;;;;3.78;1.13;;;-1.40;99.90;;;;;;4992476;28;20050;-72
2021/12/25 11:05:35;;;;;;;3.92;1.13;;;-1.40;99.90;;;;;;5000074;28;20106;-73
2021/12/25 11:08:27;;;;;;;2.55;1.00;;;-1.40;99.90;;;;;;5010555;28;20100;-73
2021/12/25 11:10:56;;;;;;;5.22;1.52;;;-1.30;99.90;;;;;;5011894;28;20044;-74
2021/12/25 11:13:27;;;;;;;4.43;1.30;;;-1.30;99.90;;;;;;5011815;28;20057;-74
2021/12/25 11:16:06;;;;;;;2.67;1.00;;;-1.30;99.90;;;;;;5027721;28;20103;-75
2021/12/25 11:19:19;;;;;;;4.57;1.10;;;-1.20;99.90;;;;;;5031284;28;20045;-74
2021/12/25 11:21:45;;;;;;;3.53;1.27;;;-1.20;99.90;;;;;;5013176;28;20056;-72
2021/12/25 11:24:16;;;;;;;3.10;1.13;;;-1.30;99.90;;;;;;5013843;28;20045;-72
2021/12/25 11:26:44;;;;;;;3.65;1.10;;;-1.20;99.90;;;;;;5015697;28;20158;-73
2021/12/25 11:29:13;;;;;;;4.97;1.30;;;-1.20;99.90;;;;;;5014304;28;20045;-74
2021/12/25 11:31:40;;;;;;;1.83;0.82;;;-1.20;99.90;;;;;;5014690;28;20461;-74
2021/12/25 11:34:06;;;;;;;3.58;0.93;;;-1.10;99.90;;;;;;5014994;28;20043;-74
2021/12/25 11:36:32;;;;;;;2.45;0.93;;;-1.10;99.90;;;;;;5017729;28;20065;-74
2021/12/25 11:38:58;;;;;;;3.40;1.13;;;-1.00;99.90;;;;;;5015628;28;20124;-73
2021/12/25 11:41:29;;;;;;;4.07;1.08;;;-1.00;99.90;;;;;;5035692;28;20361;-73
2021/12/25 11:43:55;;;;;;;3.13;0.98;;;-1.00;99.90;;;;;;5016430;28;20049;-74
2021/12/25 11:46:31;;;;;;;2.60;0.88;;;-0.90;99.90;;;;;;5019041;28;20385;-73
2021/12/25 11:49:07;;;;;;;2.30;0.80;;;-0.80;99.90;;;;;;5018416;28;20049;-72
2021/12/25 11:51:32;;;;;;;2.53;1.08;;;-0.80;99.90;;;;;;5019149;28;20045;-74
2021/12/25 11:58:55;;;;;;;3.05;1.17;;;-0.90;99.90;;;;;;5018402;28;20052;-72
2021/12/25 12:01:40;;;;;;;2.28;0.80;;;-0.90;99.90;;;;;;5019093;28;20073;-73
2021/12/25 12:04:21;;;;;;;4.90;0.90;;;-0.80;99.90;;;;;;5008559;28;20118;-74
2021/12/25 12:06:47;;;;;;;2.78;0.80;;;-0.70;99.90;;;;;;4991636;28;20128;-74
2021/12/25 12:09:18;;;;;;;1.88;0.75;;;-0.80;99.90;;;;;;5025669;28;20120;-74
2021/12/25 12:11:46;;;;;;;2.17;1.00;;;-0.80;99.90;;;;;;5000672;28;20100;-75
2021/12/25 12:14:26;;;;;;;2.25;1.70;;;-0.70;99.90;;;;;;5030190;28;20477;-74
2021/12/25 12:16:54;;;;;;;2.65;1.10;;;-0.80;99.90;;;;;;5017884;28;20103;-75
2021/12/25 12:19:32;;;;;;;3.22;1.45;;;-0.80;99.90;;;;;;5032356;28;20038;-75
2021/12/25 12:22:23;;;;;;;2.50;1.00;;;-0.80;99.90;;;;;;5000242;28;20045;-73
2021/12/25 12:27:55;;;;;;;2.97;0.98;;;-0.70;99.90;;;;;;5012048;28;20061;-75
2021/12/25 12:30:42;;;;;;;2.30;0.85;;;-0.60;99.90;;;;;;4999677;28;20470;-73
2021/12/25 12:33:17;;;;;;;2.85;1.15;;;-0.60;99.90;;;;;;4999215;28;20343;-73
2021/12/25 12:35:45;;;;;;;1.98;0.90;;;-0.70;99.90;;;;;;4998619;28;20061;-76
2021/12/25 12:38:40;;;;;;;4.05;1.17;;;-0.70;99.90;;;;;;5000180;28;20042;-75
2021/12/25 12:41:16;;;;;;;6.18;1.35;;;-0.70;99.90;;;;;;4984756;28;20046;-74
2021/12/25 12:44:15;;;;;;;0.85;0.65;;;-0.80;99.90;;;;;;5002935;28;20052;-74
2021/12/25 12:46:50;;;;;;;1.67;1.20;;;-0.80;99.90;;;;;;4939631;28;20050;-77
2021/12/25 12:49:21;;;;;;;3.20;1.25;;;-0.70;99.90;;;;;;5016837;28;20140;-76
2021/12/25 12:52:06;;;;;;;1.63;1.00;;;-0.80;99.90;;;;;;5018627;28;20362;-74
2021/12/25 12:55:07;;;;;;;2.40;1.10;;;-0.70;99.90;;;;;;5001665;28;20052;-72
2021/12/25 12:57:44;;;;;;;2.08;1.10;;;-0.70;99.90;;;;;;5016904;28;20045;-75
2021/12/25 13:00:27;;;;;;;3.08;1.02;;;-0.70;99.90;;;;;;5018250;28;20187;-75
2021/12/25 13:02:55;;;;;;;2.35;0.85;;;-0.60;99.90;;;;;;5018088;28;20037;-78
2021/12/25 13:05:29;;;;;;;3.00;1.00;;;-0.60;99.90;;;;;;4996886;28;20101;-76
2021/12/25 13:07:57;;;;;;;5.03;0.90;;;-0.60;99.90;;;;;;5002360;28;20044;-78
2021/12/25 13:10:37;;;;;;;2.92;1.10;;;-0.60;99.90;;;;;;4998054;28;20049;-77
2021/12/25 13:13:13;;;;;;;2.80;1.20;;;-0.70;99.90;;;;;;5000322;28;20084;-72
2021/12/25 13:15:41;;;;;;;2.05;0.93;;;-0.80;99.90;;;;;;5009453;28;20050;-78
2021/12/25 13:18:07;;;;;;;2.60;1.00;;;-0.80;99.90;;;;;;4997979;28;20084;-78
2021/12/25 13:20:36;;;;;;;2.47;1.00;;;-0.80;99.90;;;;;;5015505;28;20038;-76
2021/12/25 13:23:05;;;;;;;2.28;1.00;;;-0.70;99.90;;;;;;5014989;28;20073;-78
2021/12/25 13:25:31;;;;;;;2.05;0.88;;;-0.70;99.90;;;;;;5014831;28;20485;-78
2021/12/25 13:28:00;;;;;;;2.90;1.30;;;-0.70;99.90;;;;;;5014387;28;20129;-79
2021/12/25 13:30:28;;;;;;;1.00;0.65;;;-0.60;99.90;;;;;;5015615;28;20433;-77
2021/12/25 13:32:54;;;;;;;4.82;1.00;;;-0.70;99.90;;;;;;5000717;28;20049;-74
2021/12/25 13:35:24;;;;;;;5.18;0.90;;;-0.70;99.90;;;;;;5014781;28;20046;-77
2021/12/25 13:37:58;;;;;;;3.38;1.00;;;-0.70;99.90;;;;;;4997644;28;20723;-75
2021/12/25 13:40:24;;;;;;;2.70;1.00;;;-0.80;99.90;;;;;;4998332;28;20045;-75
2021/12/25 13:42:49;;;;;;;3.17;1.27;;;-0.80;99.90;;;;;;5014479;28;20038;-76
2021/12/25 13:45:15;;;;;;;3.92;1.33;;;-0.80;99.90;;;;;;5014518;28;20049;-75
2021/12/25 13:47:41;;;;;;;1.88;1.00;;;-0.90;99.90;;;;;;5008879;28;20097;-66
2021/12/25 13:50:08;;;;;;;2.33;1.08;;;-0.70;99.90;;;;;;4995526;28;20034;-70
2021/12/25 13:52:46;;;;;;;4.20;1.60;;;-0.70;99.90;;;;;;4994379;28;20165;-68
2021/12/25 13:55:18;;;;;;;3.45;1.20;;;-0.70;99.90;;;;;;5001752;28;20057;-71
2021/12/25 13:57:54;;;;;;;3.15;1.13;;;-0.80;99.90;;;;;;5013171;28;20069;-69
2021/12/25 14:00:33;;;;;;;4.53;1.02;;;-0.80;99.90;;;;;;5014620;28;20072;-71
2021/12/25 14:03:02;;;;;;;3.42;1.45;;;-0.70;99.90;;;;;;5015408;28;20073;-73
2021/12/25 14:05:31;;;;;;;5.07;1.50;;;-0.80;99.90;;;;;;5013770;28;20046;-71
2021/12/25 14:07:57;;;;;;;5.70;2.58;;;-0.80;99.90;;;;;;5012996;28;20061;-72
2021/12/25 14:10:26;;;;;;;5.72;2.38;;;-0.80;99.90;;;;;;5014988;28;20077;-72
2021/12/25 14:13:09;;;;;;;4.78;2.13;;;-0.70;99.90;;;;;;5013486;28;20049;-72
2021/12/25 14:15:36;;;;;;;5.65;2.25;;;-0.30;99.90;;;;;;5013048;28;20058;-72
2021/12/25 14:18:04;;;;;;;4.32;1.65;;;-0.20;99.90;;;;;;5005499;28;20042;-72
2021/12/25 14:20:35;;;;;;;6.65;2.65;;;0.00;99.90;;;;;;4994187;28;20129;-65
2021/12/25 14:23:11;;;;;;;9.27;2.95;;;0.10;99.90;;;;;;5003169;28;20073;-72
2021/12/25 14:25:59;;;;;;;7.05;2.13;;;0.20;99.90;;;;;;5013183;28;20044;-72
2021/12/25 14:28:26;;;;;;;4.63;1.70;;;0.30;99.90;;;;;;5002744;28;20074;-71
2021/12/25 14:31:07;;;;;;;3.78;1.10;;;0.20;99.90;;;;;;4977360;28;20104;-71
2021/12/25 14:33:36;;;;;;;3.40;1.52;;;0.10;99.90;;;;;;5012058;28;20060;-74
2021/12/25 14:36:08;;;;;;;6.50;1.88;;;0.00;99.90;;;;;;4995956;28;20050;-74
2021/12/25 14:38:42;;;;;;;7.57;2.38;;;0.10;99.90;;;;;;5002718;28;20034;-75